Time;durP1;ratioP1;P1;durP2;ratioP2;P2;SDS_P1;SDS_P2;PMS_P1;PMS_P2;Temp;Humidity;BMP_temperature;BMP_pressure;BME280_temperature;BME280_humidity;BME280_pressure;Samples;Min_cycle;Max_cycle;Signal;HPM_P1;HPM_P2
2023/09/22 00:00:18;;;;;;;11.73;9.50;;;;;;;;;;4911826;29;20100;-89
2023/09/22 00:02:49;;;;;;;11.40;9.52;;;;;;;;;;4925682;29;20090;-87
2023/09/22 00:05:20;;;;;;;12.25;9.18;;;;;;;;;;4923875;29;20464;-85
2023/09/22 00:07:50;;;;;;;11.77;9.80;;;;;;;;;;4912041;29;20155;-86
2023/09/22 00:10:21;;;;;;;12.27;9.50;;;;;;;;;;4927625;29;20076;-87
2023/09/22 00:12:50;;;;;;;14.73;10.73;;;;;;;;;;4913147;29;20064;-87
2023/09/22 00:15:20;;;;;;;13.32;11.25;;;;;;;;;;4929458;29;20079;-86
2023/09/22 00:18:01;;;;;;;13.48;10.52;;;;;;;;;;4937843;29;20076;-87
2023/09/22 00:20:42;;;;;;;13.27;10.63;;;;;;;;;;4920033;29;20056;-87
2023/09/22 00:23:24;;;;;;;12.35;10.25;;;;;;;;;;4915819;29;20056;-87
2023/09/22 00:25:53;;;;;;;19.85;10.50;;;;;;;;;;4912124;29;20055;-87
2023/09/22 00:28:23;;;;;;;13.15;9.50;;;;;;;;;;4914517;29;20055;-87
2023/09/22 00:30:53;;;;;;;12.27;8.77;;;;;;;;;;4932752;29;20059;-87
2023/09/22 00:33:20;;;;;;;13.13;9.32;;;;;;;;;;4914972;29;20448;-87
2023/09/22 00:35:51;;;;;;;14.73;9.07;;;;;;;;;;4929827;29;20329;-89
2023/09/22 00:38:18;;;;;;;15.57;10.18;;;;;;;;;;4934599;29;20059;-89
2023/09/22 00:40:45;;;;;;;16.40;11.68;;;;;;;;;;4927732;29;20048;-89
2023/09/22 00:43:13;;;;;;;13.90;9.73;;;;;;;;;;4928129;29;20055;-89
2023/09/22 00:45:42;;;;;;;14.70;9.80;;;;;;;;;;4928976;29;20047;-88
2023/09/22 00:48:09;;;;;;;11.88;10.07;;;;;;;;;;4910796;29;20101;-89
2023/09/22 00:50:40;;;;;;;13.63;10.32;;;;;;;;;;4912003;29;20052;-89
2023/09/22 00:53:10;;;;;;;14.07;10.63;;;;;;;;;;4929613;29;20052;-90
2023/09/22 00:55:51;;;;;;;13.60;9.93;;;;;;;;;;4926294;29;20071;-89
2023/09/22 00:58:21;;;;;;;13.32;9.38;;;;;;;;;;4926678;29;20097;-87
2023/09/22 01:00:49;;;;;;;14.43;10.05;;;;;;;;;;4926618;29;20063;-89
2023/09/22 01:03:17;;;;;;;12.68;10.18;;;;;;;;;;4927745;29;20059;-89
2023/09/22 01:06:06;;;;;;;12.35;9.05;;;;;;;;;;4926896;29;20068;-88
2023/09/22 01:08:36;;;;;;;16.13;10.32;;;;;;;;;;4927864;29;20067;-88
2023/09/22 01:11:03;;;;;;;13.18;8.73;;;;;;;;;;4912443;29;20052;-89
2023/09/22 01:13:34;;;;;;;10.93;8.60;;;;;;;;;;4928172;29;20443;-89
2023/09/22 01:16:02;;;;;;;15.13;10.15;;;;;;;;;;4927923;29;20058;-89
2023/09/22 01:18:33;;;;;;;13.27;8.57;;;;;;;;;;4910740;29;20139;-89
2023/09/22 01:21:00;;;;;;;11.88;9.40;;;;;;;;;;4926569;29;20064;-90
2023/09/22 01:23:30;;;;;;;13.00;8.98;;;;;;;;;;4909555;29;20056;-89
2023/09/22 01:25:58;;;;;;;12.65;9.27;;;;;;;;;;4927063;29;20072;-90
2023/09/22 01:28:25;;;;;;;15.35;9.63;;;;;;;;;;4928280;29;20048;-89
2023/09/22 01:30:53;;;;;;;14.63;9.38;;;;;;;;;;4911238;29;20052;-88
2023/09/22 01:36:45;;;;;;;14.18;9.38;;;;;;;;;;4928150;29;20079;-88
2023/09/22 01:39:16;;;;;;;13.45;9.88;;;;;;;;;;4928917;29;20059;-89
2023/09/22 01:41:43;;;;;;;12.30;9.68;;;;;;;;;;4926455;29;20058;-88
2023/09/22 01:44:10;;;;;;;13.20;10.15;;;;;;;;;;4911217;29;20091;-88
2023/09/22 01:46:41;;;;;;;13.20;9.52;;;;;;;;;;4927188;29;20051;-89
2023/09/22 01:49:08;;;;;;;13.27;10.10;;;;;;;;;;4927185;29;20071;-89
2023/09/22 01:51:38;;;;;;;14.13;9.90;;;;;;;;;;4926079;29;20377;-89
2023/09/22 01:54:08;;;;;;;13.98;9.82;;;;;;;;;;4929476;29;20115;-89
2023/09/22 01:56:41;;;;;;;14.23;10.45;;;;;;;;;;4933768;29;20088;-89
2023/09/22 01:59:10;;;;;;;13.55;10.27;;;;;;;;;;4927717;29;20176;-88
2023/09/22 02:01:37;;;;;;;13.27;10.20;;;;;;;;;;4925061;29;20048;-87
2023/09/22 02:04:04;;;;;;;13.25;10.88;;;;;;;;;;4925854;29;20166;-89
2023/09/22 02:06:32;;;;;;;14.73;10.55;;;;;;;;;;4908802;29;20056;-87
2023/09/22 02:09:04;;;;;;;14.60;11.48;;;;;;;;;;4924079;29;20063;-89
2023/09/22 02:11:31;;;;;;;15.45;11.18;;;;;;;;;;4907328;29;20052;-89
2023/09/22 02:13:59;;;;;;;15.18;11.32;;;;;;;;;;4905572;29;20063;-89
2023/09/22 02:16:35;;;;;;;16.60;10.50;;;;;;;;;;4925877;29;20091;-89
2023/09/22 02:19:04;;;;;;;19.05;12.10;;;;;;;;;;4925140;29;20130;-88
2023/09/22 02:21:37;;;;;;;14.55;10.63;;;;;;;;;;4925278;29;20044;-88
2023/09/22 02:24:05;;;;;;;14.82;11.43;;;;;;;;;;4926312;29;20059;-88
2023/09/22 02:26:37;;;;;;;16.10;11.25;;;;;;;;;;4924851;29;20063;-88
2023/09/22 02:29:07;;;;;;;16.40;11.57;;;;;;;;;;4906661;29;20081;-88
2023/09/22 02:31:39;;;;;;;15.27;11.50;;;;;;;;;;4922477;29;20076;-88
2023/09/22 02:34:09;;;;;;;16.52;11.60;;;;;;;;;;4922603;29;20418;-90
2023/09/22 02:36:36;;;;;;;16.40;12.07;;;;;;;;;;4922820;29;20090;-88
2023/09/22 02:39:06;;;;;;;17.08;11.73;;;;;;;;;;4907325;29;20087;-88
2023/09/22 02:41:36;;;;;;;18.95;12.63;;;;;;;;;;4906539;29;20138;-88
2023/09/22 02:44:06;;;;;;;16.27;11.80;;;;;;;;;;4906235;29;20087;-88
2023/09/22 02:46:36;;;;;;;15.65;12.15;;;;;;;;;;4908813;29;20122;-88
2023/09/22 02:49:06;;;;;;;17.23;11.52;;;;;;;;;;4918147;29;20098;-89
2023/09/22 02:51:33;;;;;;;14.52;10.23;;;;;;;;;;4933220;29;20044;-89
2023/09/22 02:54:04;;;;;;;16.30;11.27;;;;;;;;;;4923192;29;20056;-88
2023/09/22 02:56:32;;;;;;;16.85;11.25;;;;;;;;;;4906819;29;20071;-89
2023/09/22 02:58:59;;;;;;;19.23;12.52;;;;;;;;;;4924733;29;20055;-89
2023/09/22 03:01:28;;;;;;;17.33;10.60;;;;;;;;;;4922643;29;20139;-88
2023/09/22 03:03:55;;;;;;;19.15;11.05;;;;;;;;;;4922869;29;20056;-89
2023/09/22 03:06:22;;;;;;;16.30;10.73;;;;;;;;;;4923962;29;20263;-89
2023/09/22 03:08:49;;;;;;;18.15;10.73;;;;;;;;;;4922630;29;20040;-89
2023/09/22 03:11:16;;;;;;;14.63;9.55;;;;;;;;;;4906883;29;20106;-89
2023/09/22 03:14:11;;;;;;;16.85;10.30;;;;;;;;;;4908385;29;20142;-89
2023/09/22 03:16:41;;;;;;;15.90;10.48;;;;;;;;;;4932901;29;20104;-89
2023/09/22 03:19:09;;;;;;;13.80;9.88;;;;;;;;;;4911249;29;20084;-89
2023/09/22 03:21:39;;;;;;;16.67;10.73;;;;;;;;;;4926060;29;20068;-89
2023/09/22 03:24:06;;;;;;;15.30;9.38;;;;;;;;;;4924936;29;20170;-89
2023/09/22 03:26:32;;;;;;;15.00;10.48;;;;;;;;;;4924955;29;20052;-89
2023/09/22 03:29:00;;;;;;;17.60;11.30;;;;;;;;;;4924725;29;20059;-89
2023/09/22 03:31:27;;;;;;;20.08;11.30;;;;;;;;;;4925698;29;20052;-89
2023/09/22 03:33:54;;;;;;;17.95;10.65;;;;;;;;;;4925889;29;20094;-89
2023/09/22 03:36:24;;;;;;;17.85;10.93;;;;;;;;;;4925068;29;20111;-89
2023/09/22 03:38:58;;;;;;;15.75;11.07;;;;;;;;;;4923432;29;20135;-89
2023/09/22 03:41:28;;;;;;;14.68;10.13;;;;;;;;;;4910897;29;20070;-88
2023/09/22 03:43:58;;;;;;;18.77;11.63;;;;;;;;;;4927422;29;20064;-88
2023/09/22 03:46:28;;;;;;;16.90;10.13;;;;;;;;;;4911340;29;20059;-89
2023/09/22 03:48:58;;;;;;;14.48;10.18;;;;;;;;;;4926868;29;20076;-89
2023/09/22 03:51:25;;;;;;;17.15;11.43;;;;;;;;;;4927210;29;20051;-89
2023/09/22 03:53:55;;;;;;;18.98;11.55;;;;;;;;;;4928302;29;20272;-89
2023/09/22 03:56:39;;;;;;;15.85;11.27;;;;;;;;;;4911513;29;20134;-88
2023/09/22 03:59:11;;;;;;;20.00;12.32;;;;;;;;;;4910797;29;20154;-88
2023/09/22 04:01:59;;;;;;;17.75;11.70;;;;;;;;;;4927915;29;20063;-88
2023/09/22 04:04:27;;;;;;;20.75;12.52;;;;;;;;;;4924827;29;20056;-88
2023/09/22 04:06:54;;;;;;;15.18;11.48;;;;;;;;;;4926138;29;20079;-88
2023/09/22 04:09:24;;;;;;;17.90;12.10;;;;;;;;;;4925461;29;20063;-88
2023/09/22 04:11:52;;;;;;;20.13;11.55;;;;;;;;;;4911454;29;20052;-89
2023/09/22 04:14:20;;;;;;;22.15;11.70;;;;;;;;;;4924737;29;20064;-88
2023/09/22 04:16:50;;;;;;;15.25;10.77;;;;;;;;;;4925298;29;20052;-88
2023/09/22 04:19:18;;;;;;;18.27;11.50;;;;;;;;;;4924970;29;20064;-89
2023/09/22 04:21:49;;;;;;;21.92;10.85;;;;;;;;;;4923684;29;20095;-88
2023/09/22 04:24:20;;;;;;;21.52;12.13;;;;;;;;;;4927216;29;20120;-88
2023/09/22 04:27:17;;;;;;;20.67;12.52;;;;;;;;;;4926991;29;20056;-89
2023/09/22 04:30:00;;;;;;;18.02;11.38;;;;;;;;;;4906113;29;20091;-89
2023/09/22 04:32:33;;;;;;;19.77;11.65;;;;;;;;;;4907579;29;20114;-89
2023/09/22 04:35:01;;;;;;;15.93;10.90;;;;;;;;;;4913960;29;20076;-88
2023/09/22 04:37:29;;;;;;;18.83;11.50;;;;;;;;;;4924560;29;20092;-89
2023/09/22 04:39:56;;;;;;;15.05;10.75;;;;;;;;;;4908790;29;20036;-89
2023/09/22 04:42:35;;;;;;;16.25;11.25;;;;;;;;;;4930200;29;20131;-89
2023/09/22 04:45:05;;;;;;;15.80;10.50;;;;;;;;;;4907458;29;20211;-89
2023/09/22 04:47:35;;;;;;;14.48;10.68;;;;;;;;;;4905524;29;20483;-89
2023/09/22 04:50:04;;;;;;;17.90;11.02;;;;;;;;;;4919441;29;20448;-88
2023/09/22 04:52:31;;;;;;;16.58;11.65;;;;;;;;;;4899886;29;20168;-89
2023/09/22 04:55:00;;;;;;;16.33;12.25;;;;;;;;;;4921537;29;20072;-89
2023/09/22 04:57:27;;;;;;;15.38;11.43;;;;;;;;;;4930891;29;20075;-89
2023/09/22 04:59:57;;;;;;;14.68;10.80;;;;;;;;;;4931253;29;20040;-87
2023/09/22 05:02:25;;;;;;;15.80;11.57;;;;;;;;;;4914563;29;20121;-88
2023/09/22 05:04:52;;;;;;;16.25;10.80;;;;;;;;;;4929117;29;20040;-88
2023/09/22 05:07:27;;;;;;;15.95;10.70;;;;;;;;;;4932541;29;20087;-88
2023/09/22 05:09:59;;;;;;;17.17;10.23;;;;;;;;;;4919368;29;20107;-88
2023/09/22 05:12:42;;;;;;;14.63;10.43;;;;;;;;;;4933176;29;20061;-88
2023/09/22 05:15:12;;;;;;;19.50;10.93;;;;;;;;;;4934617;29;20181;-88
2023/09/22 05:17:46;;;;;;;18.60;10.10;;;;;;;;;;4926996;29;20048;-85
2023/09/22 05:20:20;;;;;;;16.20;10.88;;;;;;;;;;4923310;29;20048;-88
2023/09/22 05:22:46;;;;;;;14.55;10.60;;;;;;;;;;4899183;29;20399;-87
2023/09/22 05:25:15;;;;;;;14.38;9.93;;;;;;;;;;4915245;29;20048;-88
2023/09/22 05:27:46;;;;;;;13.85;10.50;;;;;;;;;;4915609;29;20574;-88
2023/09/22 05:30:14;;;;;;;15.02;10.55;;;;;;;;;;4912625;29;20048;-88
2023/09/22 05:32:42;;;;;;;16.70;9.75;;;;;;;;;;4911472;29;20335;-89
2023/09/22 05:35:09;;;;;;;12.82;10.05;;;;;;;;;;4896964;29;20229;-88
2023/09/22 05:37:38;;;;;;;15.45;10.38;;;;;;;;;;4918040;29;20056;-88
2023/09/22 05:40:12;;;;;;;13.63;9.02;;;;;;;;;;4914237;29;20056;-89
2023/09/22 05:42:42;;;;;;;12.95;9.25;;;;;;;;;;4913019;29;20123;-89
2023/09/22 05:45:10;;;;;;;12.73;9.60;;;;;;;;;;4896940;29;20056;-88
2023/09/22 05:47:37;;;;;;;12.13;9.10;;;;;;;;;;4917146;29;20100;-88
2023/09/22 05:50:05;;;;;;;14.52;8.77;;;;;;;;;;4898895;29;20059;-88
2023/09/22 05:52:35;;;;;;;11.85;8.70;;;;;;;;;;4898260;29;20104;-88
2023/09/22 05:55:08;;;;;;;14.27;7.93;;;;;;;;;;4896782;29;20059;-88
2023/09/22 05:57:35;;;;;;;14.43;9.05;;;;;;;;;;4894360;29;20124;-88
2023/09/22 06:00:10;;;;;;;13.68;8.93;;;;;;;;;;4908994;29;20134;-88
2023/09/22 06:02:52;;;;;;;15.63;9.15;;;;;;;;;;4913442;29;20044;-89
2023/09/22 06:05:26;;;;;;;12.98;9.02;;;;;;;;;;4893595;29;20048;-89
2023/09/22 06:07:59;;;;;;;13.70;8.88;;;;;;;;;;4923951;29;20052;-87
2023/09/22 06:13:52;;;;;;;15.15;8.90;;;;;;;;;;4935127;29;20074;-89
2023/09/22 06:16:39;;;;;;;12.48;8.77;;;;;;;;;;4938703;29;20234;-88
2023/09/22 06:19:23;;;;;;;13.70;8.00;;;;;;;;;;4939386;29;20054;-89
2023/09/22 06:29:31;;;;;;;15.75;8.90;;;;;;;;;;4876487;29;20138;-87
2023/09/22 06:35:33;;;;;;;13.02;7.93;;;;;;;;;;4879492;29;20037;-89
2023/09/22 06:38:23;;;;;;;11.18;7.85;;;;;;;;;;4861604;29;20053;-89
2023/09/22 06:40:55;;;;;;;12.77;7.97;;;;;;;;;;4915688;29;20064;-89
2023/09/22 06:43:29;;;;;;;11.20;7.35;;;;;;;;;;4934195;29;20205;-88
2023/09/22 06:46:23;;;;;;;13.48;7.10;;;;;;;;;;4926971;29;20115;-88
2023/09/22 06:49:24;;;;;;;9.32;6.22;;;;;;;;;;4901948;29;20039;-89
2023/09/22 06:51:57;;;;;;;13.15;6.88;;;;;;;;;;4934322;29;20056;-88
2023/09/22 06:54:49;;;;;;;10.35;7.00;;;;;;;;;;4933893;29;20055;-90
2023/09/22 06:57:32;;;;;;;14.68;6.70;;;;;;;;;;4935320;29;20116;-89
2023/09/22 07:00:20;;;;;;;11.00;6.20;;;;;;;;;;4919601;29;20036;-90
2023/09/22 07:03:01;;;;;;;12.00;7.00;;;;;;;;;;4919059;29;20040;-89
2023/09/22 07:05:31;;;;;;;13.23;7.78;;;;;;;;;;4918954;29;20090;-89
2023/09/22 07:08:03;;;;;;;7.88;5.35;;;;;;;;;;4935371;29;20131;-89
2023/09/22 07:10:55;;;;;;;9.60;6.97;;;;;;;;;;4933738;29;20039;-88
2023/09/22 07:13:40;;;;;;;12.48;7.00;;;;;;;;;;4920144;29;20255;-89
2023/09/22 07:16:12;;;;;;;13.32;6.90;;;;;;;;;;4933424;29;20070;-88
2023/09/22 07:18:53;;;;;;;11.07;6.72;;;;;;;;;;4924840;29;20230;-88
2023/09/22 07:21:42;;;;;;;11.27;7.32;;;;;;;;;;4918978;29;20068;-88
2023/09/22 07:24:26;;;;;;;;;;;;;;;;;;4921699;29;20095;-90
2023/09/22 07:27:07;;;;;;;9.30;6.13;;;;;;;;;;4934526;29;19962;-88
2023/09/22 07:29:59;;;;;;;14.40;6.10;;;;;;;;;;4930847;29;20052;-89
2023/09/22 07:32:45;;;;;;;11.85;6.57;;;;;;;;;;4933709;29;20055;-89
2023/09/22 07:36:00;;;;;;;13.25;6.53;;;;;;;;;;4931700;29;20056;-88
2023/09/22 07:38:48;;;;;;;11.63;6.35;;;;;;;;;;4936697;29;20112;-88
2023/09/22 07:41:35;;;;;;;9.63;5.60;;;;;;;;;;4918885;29;20036;-89
2023/09/22 07:44:21;;;;;;;9.98;5.72;;;;;;;;;;4933197;29;20024;-88
2023/09/22 07:47:14;;;;;;;9.05;6.10;;;;;;;;;;4920697;29;20092;-87
2023/09/22 07:50:34;;;;;;;8.20;5.57;;;;;;;;;;4918298;29;20176;-88
2023/09/22 07:53:25;;;;;;;7.47;4.38;;;;;;;;;;4919097;29;20047;-89
2023/09/22 07:56:27;;;;;;;;;;;;;;;;;;;;;
2023/09/22 07:59:08;;;;;;;8.85;4.85;;;;;;;;;;4931889;29;20047;-88
2023/09/22 08:01:53;;;;;;;11.07;4.15;;;;;;;;;;4933235;29;20051;-87
2023/09/22 08:04:42;;;;;;;7.63;4.28;;;;;;;;;;5002094;23;20042;-86
2023/09/22 08:07:37;;;;;;;8.25;3.97;;;;;;;;;;4934572;29;20112;-92
2023/09/22 08:10:53;;;;;;;7.43;4.03;;;;;;;;;;4933730;29;20083;-89
2023/09/22 08:13:40;;;;;;;8.27;3.90;;;;;;;;;;4922130;29;20044;-90
2023/09/22 08:19:09;;;;;;;9.65;4.40;;;;;;;;;;5046456;23;20063;-89
2023/09/22 08:31:34;;;;;;;9.43;3.80;;;;;;;;;;4957902;28;20039;-90
2023/09/22 08:34:42;;;;;;;5.45;3.13;;;;;;;;;;4958349;28;20087;-89
2023/09/22 08:37:34;;;;;;;6.22;2.88;;;;;;;;;;4955905;28;20044;-91
2023/09/22 08:40:19;;;;;;;6.72;3.05;;;;;;;;;;4942421;29;20035;-90
2023/09/22 08:43:10;;;;;;;6.25;3.40;;;;;;;;;;4942093;29;20067;-89
2023/09/22 08:49:22;;;;;;;13.77;3.85;;;;;;;;;;4959536;28;20072;-90
2023/09/22 08:52:04;;;;;;;5.90;3.83;;;;;;;;;;5037819;23;20039;-89
2023/09/22 09:01:48;;;;;;;8.55;3.72;;;;;;;;;;4956836;28;20047;-89
2023/09/22 09:04:33;;;;;;;6.43;3.50;;;;;;;;;;4941176;29;20040;-89
2023/09/22 09:10:40;;;;;;;6.03;3.03;;;;;;;;;;4958840;29;20045;-89
2023/09/22 09:13:27;;;;;;;8.45;3.45;;;;;;;;;;4943845;29;20023;-89
2023/09/22 09:16:36;;;;;;;7.50;3.72;;;;;;;;;;4943107;29;20518;-92
2023/09/22 09:24:44;;;;;;;7.40;3.28;;;;;;;;;;5142342;23;20119;-90
2023/09/22 09:27:24;;;;;;;9.75;3.75;;;;;;;;;;4942296;29;20055;-89
2023/09/22 09:30:25;;;;;;;9.63;3.70;;;;;;;;;;4956328;29;20071;-89
2023/09/22 09:33:12;;;;;;;7.80;3.50;;;;;;;;;;4940104;29;20046;-89
2023/09/22 09:35:54;;;;;;;8.93;3.88;;;;;;;;;;4941594;29;20229;-88
2023/09/22 09:38:40;;;;;;;11.70;3.80;;;;;;;;;;4922422;29;20084;-89
2023/09/22 09:41:29;;;;;;;3.63;3.15;;;;;;;;;;4935654;29;20127;-89
2023/09/22 09:44:04;;;;;;;8.40;4.30;;;;;;;;;;4937099;29;20051;-89
2023/09/22 09:46:55;;;;;;;4.72;3.15;;;;;;;;;;4921212;29;20047;-90
2023/09/22 09:52:17;;;;;;;9.65;3.08;;;;;;;;;;4854493;27;20095;-90
2023/09/22 10:01:37;;;;;;;6.10;2.35;;;;;;;;;;4212767;26;15469083;-89
2023/09/22 10:04:43;;;;;;;3.80;1.88;;;;;;;;;;4996580;23;20070;-90
2023/09/22 10:10:33;;;;;;;5.53;2.40;;;;;;;;;;4734664;26;20024;-89
2023/09/22 10:19:05;;;;;;;8.60;2.10;;;;;;;;;;5589933;23;20035;-90
2023/09/22 10:22:54;;;;;;;4.03;2.15;;;;;;;;;;4956800;28;20036;-90
2023/09/22 10:32:46;;;;;;;6.38;1.00;;;;;;;;;;4957800;28;20042;-90
2023/09/22 10:41:06;;;;;;;5.10;1.30;;;;;;;;;;5293421;23;20039;-90
2023/09/22 10:44:03;;;;;;;3.17;1.00;;;;;;;;;;4942299;28;20035;-90
2023/09/22 10:47:27;;;;;;;4.05;1.10;;;;;;;;;;4951662;28;20054;-86
2023/09/22 10:50:19;;;;;;;6.70;1.00;;;;;;;;;;4941001;28;20039;-90
2023/09/22 10:53:32;;;;;;;1.80;0.65;;;;;;;;;;4938520;28;20050;-89
2023/09/22 10:56:16;;;;;;;6.25;1.00;;;;;;;;;;5033871;23;20054;-93
2023/09/22 10:59:31;;;;;;;2.22;1.33;;;;;;;;;;4957223;28;20031;-90
2023/09/22 11:02:28;;;;;;;2.95;0.93;;;;;;;;;;5037998;23;20056;-88
2023/09/22 11:05:34;;;;;;;2.15;0.70;;;;;;;;;;4958482;28;20075;-91
2023/09/22 11:09:05;;;;;;;3.03;0.80;;;;;;;;;;5868701;23;20045;-91
2023/09/22 11:14:43;;;;;;;3.67;0.68;;;;;;;;;;5317713;23;20075;-91
2023/09/22 11:17:58;;;;;;;6.68;1.40;;;;;;;;;;4998074;23;20052;-90
2023/09/22 11:42:07;;;;;;;3.95;1.17;;;;;;;;;;5658873;23;20924;-91
2023/09/22 11:47:40;;;;;;;1.90;0.90;;;;;;;;;;5778964;23;20056;-88
2023/09/22 11:50:53;;;;;;;3.05;1.00;;;;;;;;;;5228756;23;20847;-89
2023/09/22 11:53:58;;;;;;;5.22;1.35;;;;;;;;;;4942074;28;20117;-90
2023/09/22 12:00:20;;;;;;;5.80;1.27;;;;;;;;;;4957030;28;20030;-92
2023/09/22 12:17:10;;;;;;;1.88;0.80;;;;;;;;;;4959049;29;20161;-92
2023/09/22 12:19:54;;;;;;;;;;;;;;;;;;4959117;29;20133;-91
2023/09/22 12:32:21;;;;;;;1.10;0.70;;;;;;;;;;4905925;29;20048;-88
2023/09/22 12:37:46;;;;;;;0.97;0.70;;;;;;;;;;5606903;23;20046;-90
2023/09/22 12:40:32;;;;;;;2.30;0.80;;;;;;;;;;4945081;28;20701;-90
2023/09/22 12:43:25;;;;;;;2.38;1.13;;;;;;;;;;4944826;28;20036;-92
2023/09/22 12:46:30;;;;;;;4.35;0.80;;;;;;;;;;5056932;23;20238;-89
2023/09/22 12:49:18;;;;;;;2.60;1.10;;;;;;;;;;4926763;29;20047;-93
2023/09/22 12:51:59;;;;;;;2.80;1.10;;;;;;;;;;4906648;29;20091;-90
2023/09/22 12:57:55;;;;;;;1.58;0.90;;;;;;;;;;5584126;23;20063;-90
2023/09/22 13:00:43;;;;;;;2.50;1.13;;;;;;;;;;5600338;23;20070;-90
2023/09/22 13:03:39;;;;;;;2.67;0.90;;;;;;;;;;4958321;28;20047;-91
2023/09/22 13:06:26;;;;;;;4.47;1.02;;;;;;;;;;5031671;23;20064;-90
2023/09/22 13:09:08;;;;;;;5.28;0.88;;;;;;;;;;4943255;28;20103;-90
2023/09/22 13:15:32;;;;;;;2.05;0.90;;;;;;;;;;4958946;28;20084;-90
2023/09/22 13:25:30;;;;;;;5.70;0.95;;;;;;;;;;4959828;29;20034;-91
2023/09/22 14:16:07;;;;;;;5.15;0.82;;;;;;;;;;4401838;23;20040;-90
2023/09/22 14:18:48;;;;;;;2.00;0.77;;;;;;;;;;4944281;28;20066;-89
2023/09/22 14:25:26;;;;;;;1.23;0.60;;;;;;;;;;4959428;28;20091;-90
2023/09/22 14:28:07;;;;;;;2.00;0.95;;;;;;;;;;4934339;29;20087;-89
2023/09/22 14:30:39;;;;;;;2.92;0.82;;;;;;;;;;4928558;29;20055;-89
2023/09/22 14:33:10;;;;;;;3.28;0.70;;;;;;;;;;4916582;29;20114;-88
2023/09/22 14:35:39;;;;;;;2.15;0.70;;;;;;;;;;4916756;29;20301;-89
2023/09/22 14:38:11;;;;;;;1.83;0.70;;;;;;;;;;4916692;29;20051;-89
2023/09/22 14:40:41;;;;;;;1.33;0.93;;;;;;;;;;4932252;29;20305;-89
2023/09/22 14:43:11;;;;;;;2.05;0.60;;;;;;;;;;4912961;29;20106;-89
2023/09/22 14:45:39;;;;;;;9.02;1.00;;;;;;;;;;4931113;28;20193;-90
2023/09/22 14:48:12;;;;;;;1.88;0.70;;;;;;;;;;4937619;29;20320;-90
2023/09/22 14:50:39;;;;;;;3.17;0.98;;;;;;;;;;4934017;29;20075;-90
2023/09/22 14:53:06;;;;;;;3.80;0.70;;;;;;;;;;4912066;29;20211;-91
2023/09/22 14:55:33;;;;;;;2.42;0.82;;;;;;;;;;4927622;29;20044;-91
2023/09/22 14:58:01;;;;;;;3.97;0.63;;;;;;;;;;4926508;28;20214;-91
2023/09/22 15:00:41;;;;;;;3.53;0.82;;;;;;;;;;4933999;28;20087;-90
2023/09/22 15:03:08;;;;;;;1.80;0.80;;;;;;;;;;4915215;29;20055;-89
2023/09/22 15:05:36;;;;;;;2.20;0.90;;;;;;;;;;4914672;29;20455;-89
2023/09/22 15:08:17;;;;;;;5.85;0.80;;;;;;;;;;4930923;29;20348;-89
2023/09/22 15:11:00;;;;;;;1.73;0.98;;;;;;;;;;4931538;29;20052;-89
2023/09/22 15:13:30;;;;;;;3.13;0.70;;;;;;;;;;4913380;29;20071;-90
2023/09/22 15:16:06;;;;;;;4.85;0.80;;;;;;;;;;4929222;29;20063;-90
2023/09/22 15:18:39;;;;;;;3.53;0.80;;;;;;;;;;4913272;29;20436;-90
2023/09/22 15:21:11;;;;;;;1.23;0.70;;;;;;;;;;4911753;29;20063;-89
2023/09/22 15:23:38;;;;;;;1.88;0.73;;;;;;;;;;4913845;29;20055;-90
2023/09/22 15:26:06;;;;;;;6.55;0.90;;;;;;;;;;4913329;29;20055;-89
2023/09/22 15:28:41;;;;;;;4.10;0.77;;;;;;;;;;4913348;29;20058;-90
2023/09/22 15:31:10;;;;;;;2.63;0.88;;;;;;;;;;4928207;29;20126;-90
2023/09/22 15:33:37;;;;;;;1.75;0.73;;;;;;;;;;4912769;29;20059;-90
2023/09/22 15:36:10;;;;;;;8.70;1.20;;;;;;;;;;4914766;29;20171;-90
2023/09/22 15:38:39;;;;;;;3.22;1.05;;;;;;;;;;4915937;29;20237;-89
2023/09/22 15:41:11;;;;;;;1.63;0.80;;;;;;;;;;4916648;29;20058;-90
2023/09/22 15:43:38;;;;;;;1.77;0.65;;;;;;;;;;4938880;29;20110;-90
2023/09/22 15:46:18;;;;;;;1.85;0.60;;;;;;;;;;4924013;29;20127;-90
2023/09/22 15:48:45;;;;;;;2.17;0.80;;;;;;;;;;4937883;29;20108;-90
2023/09/22 15:51:13;;;;;;;1.20;0.47;;;;;;;;;;4918817;29;20137;-90
2023/09/22 15:53:50;;;;;;;3.03;0.65;;;;;;;;;;4930835;29;20055;-90
2023/09/22 15:56:17;;;;;;;1.33;0.80;;;;;;;;;;4904082;29;20048;-89
2023/09/22 15:58:44;;;;;;;4.65;0.70;;;;;;;;;;4933584;29;20048;-90
2023/09/22 16:01:18;;;;;;;2.05;0.65;;;;;;;;;;4913631;29;20277;-91
2023/09/22 16:03:51;;;;;;;1.95;0.90;;;;;;;;;;4915732;29;20052;-90
2023/09/22 16:06:19;;;;;;;5.07;1.20;;;;;;;;;;4918263;29;20139;-90
2023/09/22 16:08:46;;;;;;;3.42;0.70;;;;;;;;;;4918956;29;20146;-89
2023/09/22 16:11:16;;;;;;;1.38;0.80;;;;;;;;;;4913009;28;20063;-90
2023/09/22 16:13:45;;;;;;;6.55;0.77;;;;;;;;;;4918113;29;20514;-90
2023/09/22 16:16:14;;;;;;;2.30;0.70;;;;;;;;;;4943691;29;20063;-89
2023/09/22 16:18:41;;;;;;;5.05;0.95;;;;;;;;;;4929474;29;20054;-90
2023/09/22 16:21:10;;;;;;;2.10;0.90;;;;;;;;;;4928784;29;20055;-90
2023/09/22 16:23:40;;;;;;;2.22;0.82;;;;;;;;;;4932982;29;20169;-90
2023/09/22 16:26:08;;;;;;;2.83;0.77;;;;;;;;;;4916756;29;20153;-90
2023/09/22 16:28:38;;;;;;;1.02;0.65;;;;;;;;;;4916129;29;20075;-90
2023/09/22 16:31:07;;;;;;;3.30;0.80;;;;;;;;;;4918338;29;20125;-87
2023/09/22 16:33:37;;;;;;;2.13;0.80;;;;;;;;;;4917395;29;20051;-90
2023/09/22 16:36:13;;;;;;;2.33;0.88;;;;;;;;;;4933109;29;20048;-90
2023/09/22 16:38:40;;;;;;;3.28;0.90;;;;;;;;;;4913808;29;20127;-90
2023/09/22 16:41:08;;;;;;;2.92;1.00;;;;;;;;;;4917400;29;20154;-90
2023/09/22 16:43:40;;;;;;;4.53;0.82;;;;;;;;;;4917915;29;20089;-90
2023/09/22 16:46:11;;;;;;;2.42;0.80;;;;;;;;;;4934195;29;20083;-89
2023/09/22 16:48:41;;;;;;;2.15;0.77;;;;;;;;;;4934956;29;20184;-90
2023/09/22 16:51:08;;;;;;;2.53;0.90;;;;;;;;;;4934810;29;20047;-90
2023/09/22 16:53:48;;;;;;;1.90;0.63;;;;;;;;;;4918656;29;20166;-90
2023/09/22 16:56:15;;;;;;;3.50;1.02;;;;;;;;;;4919088;29;20166;-90
2023/09/22 16:58:43;;;;;;;5.00;1.10;;;;;;;;;;4934669;29;20047;-90
2023/09/22 17:01:14;;;;;;;4.35;1.17;;;;;;;;;;4923220;29;20341;-90
2023/09/22 17:03:55;;;;;;;0.90;0.70;;;;;;;;;;4929164;29;20104;-89
2023/09/22 17:06:35;;;;;;;2.88;0.57;;;;;;;;;;4929064;29;20043;-90
2023/09/22 17:09:04;;;;;;;;;;;;;;;;;;4927782;29;20061;-90
2023/09/22 17:11:33;;;;;;;1.45;0.90;;;;;;;;;;4929849;29;19933;-90
2023/09/22 17:14:03;;;;;;;1.80;0.65;;;;;;;;;;4925324;29;20151;-90
2023/09/22 17:16:33;;;;;;;3.80;0.93;;;;;;;;;;4929837;29;20066;-90
2023/09/22 17:19:01;;;;;;;2.97;1.15;;;;;;;;;;4926112;29;20051;-90
2023/09/22 17:21:40;;;;;;;1.15;0.75;;;;;;;;;;4943222;29;20067;-89
2023/09/22 17:24:08;;;;;;;3.15;0.90;;;;;;;;;;4924710;29;20309;-90
2023/09/22 17:26:35;;;;;;;0.85;0.55;;;;;;;;;;4927065;29;20063;-89
2023/09/22 17:29:06;;;;;;;1.60;0.80;;;;;;;;;;4926759;29;20262;-89
2023/09/22 17:31:56;;;;;;;1.92;0.80;;;;;;;;;;4923334;29;20062;-90
2023/09/22 17:34:29;;;;;;;2.97;1.00;;;;;;;;;;4928420;29;20221;-90
2023/09/22 17:36:56;;;;;;;5.00;1.10;;;;;;;;;;4924554;29;20059;-89
2023/09/22 17:39:23;;;;;;;3.13;1.50;;;;;;;;;;4927026;29;20061;-90
2023/09/22 17:41:53;;;;;;;6.18;1.10;;;;;;;;;;4925659;29;20099;-89
2023/09/22 17:44:22;;;;;;;5.80;1.58;;;;;;;;;;4943753;29;20071;-89
2023/09/22 17:46:54;;;;;;;5.35;1.10;;;;;;;;;;4927636;29;20047;-89
2023/09/22 17:49:29;;;;;;;2.30;0.90;;;;;;;;;;4945182;29;20056;-89
2023/09/22 17:52:02;;;;;;;1.80;1.13;;;;;;;;;;4924523;29;20052;-89
2023/09/22 17:54:32;;;;;;;4.35;0.90;;;;;;;;;;4942060;29;20234;-90
2023/09/22 17:57:02;;;;;;;3.00;1.17;;;;;;;;;;4924298;29;20056;-86
2023/09/22 17:59:40;;;;;;;1.75;1.25;;;;;;;;;;4920371;29;20113;-87
2023/09/22 18:02:07;;;;;;;3.60;1.35;;;;;;;;;;4917346;29;20051;-87
2023/09/22 18:04:40;;;;;;;4.68;1.58;;;;;;;;;;4919668;29;20224;-87
2023/09/22 18:07:19;;;;;;;4.55;1.45;;;;;;;;;;4919518;29;20334;-87
2023/09/22 18:09:52;;;;;;;6.05;1.27;;;;;;;;;;4921109;29;20048;-88
2023/09/22 18:12:25;;;;;;;5.85;1.42;;;;;;;;;;4936340;29;20051;-86
2023/09/22 18:14:55;;;;;;;7.43;1.17;;;;;;;;;;4919354;29;20130;-87
2023/09/22 18:17:25;;;;;;;1.92;1.17;;;;;;;;;;4914972;29;20185;-87
2023/09/22 18:19:56;;;;;;;3.13;1.45;;;;;;;;;;4917533;28;20063;-87
2023/09/22 18:22:29;;;;;;;2.35;1.45;;;;;;;;;;4918513;29;20081;-88
2023/09/22 18:25:01;;;;;;;5.25;1.40;;;;;;;;;;4917609;29;20078;-87
2023/09/22 18:27:53;;;;;;;4.15;2.00;;;;;;;;;;4920320;29;20153;-87
2023/09/22 18:30:23;;;;;;;3.20;1.65;;;;;;;;;;4918893;29;20044;-87
2023/09/22 18:33:05;;;;;;;2.40;1.38;;;;;;;;;;4920602;29;20114;-87
2023/09/22 18:35:44;;;;;;;8.48;3.38;;;;;;;;;;4919304;29;20158;-87
2023/09/22 18:38:20;;;;;;;2.85;2.20;;;;;;;;;;4918738;29;20079;-86
2023/09/22 18:41:07;;;;;;;4.05;2.05;;;;;;;;;;4933448;29;20446;-87
2023/09/22 18:43:35;;;;;;;9.88;2.08;;;;;;;;;;4919473;29;20110;-87
2023/09/22 18:46:03;;;;;;;4.47;2.10;;;;;;;;;;4921944;29;20412;-87
2023/09/22 18:48:34;;;;;;;2.72;1.92;;;;;;;;;;4919154;29;20058;-87
2023/09/22 18:51:04;;;;;;;6.40;2.35;;;;;;;;;;4920742;29;20052;-87
2023/09/22 18:53:38;;;;;;;5.60;2.85;;;;;;;;;;4920988;29;20111;-90